createdAt,value
2023-03-10T06:04:50.929Z,67.43
2023-03-10T06:07:20.667Z,67.55
2023-03-10T06:09:47.752Z,67.50
2023-03-10T06:12:14.873Z,67.35
2023-03-10T06:14:42.226Z,67.85
2023-03-10T06:19:59.467Z,67.37
2023-03-10T06:22:27.313Z,67.86
2023-03-10T06:24:59.477Z,67.86
2023-03-10T06:27:29.804Z,68.02
2023-03-10T06:32:47.191Z,68.31
2023-03-10T06:35:17.189Z,68.32
2023-03-10T06:40:41.805Z,66.98
2023-03-10T06:43:10.997Z,68.62
2023-03-10T06:48:35.346Z,68.15
2023-03-10T06:51:04.807Z,67.79
2023-03-10T06:53:42.179Z,67.73
2023-03-10T06:57:05.381Z,68.41
2023-03-10T06:59:41.867Z,68.43
2023-03-10T07:02:16.487Z,68.31
2023-03-10T07:05:10.403Z,68.63
2023-03-10T07:17:15.133Z,68.33
2023-03-10T07:19:46.340Z,68.40
2023-03-10T07:22:15.957Z,68.10
2023-03-10T07:24:43.407Z,68.63
2023-03-10T07:27:10.473Z,68.72
2023-03-10T07:29:37.914Z,68.56
2023-03-10T07:32:05.868Z,68.62
2023-03-10T07:34:39.667Z,67.36
2023-03-10T07:37:10.910Z,67.00
2023-03-10T07:39:40.707Z,67.13
2023-03-10T07:42:07.926Z,66.51
2023-03-10T07:44:35.378Z,66.52
2023-03-10T07:47:02.319Z,66.78
2023-03-10T07:49:32.022Z,66.88
2023-03-10T07:51:59.394Z,66.23
2023-03-10T07:54:26.785Z,66.79
2023-03-10T07:56:54.148Z,66.81
2023-03-10T07:59:21.302Z,66.83
2023-03-10T08:01:51.012Z,67.15
2023-03-10T08:04:18.571Z,67.36
2023-03-10T08:06:54.902Z,67.09
2023-03-10T08:09:24.293Z,67.29
2023-03-10T08:11:51.948Z,66.98
2023-03-10T08:14:24.167Z,65.03
2023-03-10T08:16:52.371Z,63.24
2023-03-10T08:19:32.042Z,64.61
2023-03-10T08:22:11.417Z,65.56
2023-03-10T08:57:42.733Z,65.90
2023-03-10T09:00:17.572Z,67.11
2023-03-10T09:02:49.854Z,67.27
2023-03-10T09:27:17.029Z,66.15
2023-03-10T09:29:44.235Z,66.29
2023-03-10T09:32:13.890Z,66.29
2023-03-10T09:34:58.093Z,66.40
2023-03-10T09:37:25.266Z,66.90
2023-03-10T09:39:52.729Z,66.99
2023-03-10T09:42:42.795Z,67.20
2023-03-10T09:45:18.711Z,66.62
2023-03-10T09:47:50.037Z,65.62
2023-03-10T09:54:55.341Z,65.72
2023-03-10T09:57:28.343Z,63.26
2023-03-10T09:59:58.112Z,62.67
2023-03-10T10:02:30.791Z,61.63
2023-03-10T10:05:05.524Z,63.69
2023-03-10T10:07:44.316Z,64.49
2023-03-10T10:10:20.355Z,63.44
2023-03-10T10:12:50.006Z,64.29
2023-03-10T10:15:18.303Z,65.47
2023-03-10T10:18:16.180Z,64.70
2023-03-10T10:20:47.751Z,64.71
2023-03-10T10:23:17.811Z,64.85
2023-03-10T10:25:51.889Z,61.38
2023-03-10T10:28:23.994Z,62.79
2023-03-10T10:30:51.715Z,64.00
2023-03-10T10:33:21.386Z,64.04
2023-03-10T10:36:02.547Z,63.79
2023-03-10T10:38:31.399Z,64.57
2023-03-10T10:41:07.312Z,63.89
2023-03-10T10:43:43.661Z,63.69
2023-03-10T10:46:14.723Z,63.73
2023-03-10T10:52:18.381Z,64.70
2023-03-10T10:58:05.932Z,65.07
2023-03-10T11:01:05.303Z,64.96
2023-03-10T11:06:37.274Z,63.04
2023-03-10T11:09:23.971Z,62.76
2023-03-10T11:11:55.361Z,64.48
2023-03-10T11:14:35.534Z,64.52
2023-03-10T11:17:17.132Z,63.16
2023-03-10T11:20:04.362Z,63.37
2023-03-10T11:22:31.281Z,64.53
2023-03-10T11:25:07.340Z,64.18
2023-03-10T11:27:43.508Z,64.30
2023-03-10T11:30:33.670Z,62.80
2023-03-10T11:33:26.215Z,63.37
2023-03-10T11:35:59.866Z,64.18
2023-03-10T11:38:54.854Z,64.62
2023-03-10T11:41:24.563Z,64.32
2023-03-10T11:43:54.419Z,64.27
2023-03-10T11:46:21.489Z,63.61
2023-03-10T11:52:02.238Z,64.23
2023-03-10T11:54:34.650Z,63.31
2023-03-10T11:57:04.306Z,62.18
2023-03-10T11:59:37.215Z,63.56
2023-03-10T12:02:04.990Z,61.61
2023-03-10T12:04:42.067Z,62.34
2023-03-10T12:07:13.359Z,63.36
2023-03-10T12:09:42.793Z,63.95
2023-03-10T12:12:18.935Z,63.91
2023-03-10T12:14:46.741Z,64.46
2023-03-10T12:17:15.331Z,63.41
2023-03-10T12:20:01.059Z,62.61
2023-03-10T12:22:38.016Z,62.36
2023-03-10T12:25:05.263Z,62.69
2023-03-10T12:27:52.006Z,60.51
2023-03-10T12:30:37.450Z,61.78
2023-03-10T12:33:04.351Z,61.24
2023-03-10T12:35:49.538Z,61.20
2023-03-10T12:38:23.181Z,61.14
2023-03-10T12:40:51.749Z,62.25
2023-03-10T12:43:44.318Z,62.48
2023-03-10T12:46:31.686Z,62.86
2023-03-10T12:49:02.055Z,63.13
2023-03-10T12:51:29.175Z,64.05
2023-03-10T12:54:05.003Z,62.10
2023-03-10T12:56:52.733Z,60.66
2023-03-10T12:59:25.882Z,61.43
2023-03-10T13:01:56.263Z,58.28
2023-03-10T13:04:23.897Z,59.66
2023-03-10T13:06:55.435Z,61.00
2023-03-10T13:09:33.027Z,62.04
2023-03-10T13:12:04.173Z,61.54
2023-03-10T13:14:40.054Z,61.88
2023-03-10T13:17:07.387Z,60.29
2023-03-10T13:19:35.341Z,62.21
2023-03-10T13:22:02.226Z,61.85
2023-03-10T13:24:30.446Z,62.17
2023-03-10T13:27:08.172Z,62.89
2023-03-10T13:29:35.339Z,63.11
2023-03-10T13:32:02.532Z,63.40
2023-03-10T13:34:30.534Z,62.77
2023-03-10T13:42:42.903Z,62.88
2023-03-10T13:45:15.454Z,62.41
2023-03-10T13:47:43.398Z,61.92
2023-03-10T13:50:40.434Z,61.39
2023-03-10T13:53:28.582Z,63.36
2023-03-10T13:55:59.984Z,61.93
2023-03-10T13:58:27.880Z,59.51
2023-03-10T14:00:57.590Z,53.73
2023-03-10T14:03:58.181Z,58.52
2023-03-10T14:06:27.271Z,56.12
2023-03-10T14:08:57.109Z,57.26
2023-03-10T14:11:56.349Z,56.65
2023-03-10T14:14:58.760Z,51.30
2023-03-10T14:17:52.529Z,57.61
2023-03-10T14:20:26.447Z,59.20
2023-03-10T14:22:53.763Z,62.48
2023-03-10T14:25:23.066Z,63.49
2023-03-10T14:28:04.809Z,66.68
2023-03-10T14:30:32.882Z,67.18
2023-03-10T14:33:01.110Z,67.17
2023-03-10T14:35:30.534Z,67.44
2023-03-10T14:37:58.329Z,67.04
2023-03-10T14:40:25.673Z,67.16
2023-03-10T14:42:54.814Z,66.66
2023-03-10T14:45:35.673Z,66.60
2023-03-10T14:48:04.634Z,65.91
2023-03-10T14:50:32.484Z,65.41
2023-03-10T14:52:59.793Z,65.59
2023-03-10T14:55:26.895Z,65.58
2023-03-10T14:58:17.438Z,65.67
2023-03-10T15:00:48.908Z,65.48
2023-03-10T15:03:21.753Z,64.96
2023-03-10T15:05:49.606Z,65.22
2023-03-10T15:08:18.303Z,65.32
2023-03-10T15:10:51.837Z,65.11
2023-03-10T15:13:25.065Z,65.29
2023-03-10T15:15:52.688Z,65.15
2023-03-10T15:18:22.863Z,64.49
2023-03-10T15:20:53.319Z,63.83
2023-03-10T15:23:35.202Z,64.16
2023-03-10T15:26:09.865Z,64.08
2023-03-10T15:38:05.748Z,63.41
2023-03-10T15:43:14.725Z,64.18
2023-03-10T15:48:29.394Z,65.18
2023-03-10T15:50:56.491Z,64.93
2023-03-10T15:53:23.590Z,64.45
2023-03-10T15:58:58.558Z,65.35
2023-03-10T16:01:27.131Z,65.01
2023-03-10T16:03:57.970Z,64.91
2023-03-10T16:06:27.728Z,64.27
2023-03-10T16:09:04.133Z,64.70
2023-03-10T16:16:00.734Z,64.79
2023-03-10T16:18:30.774Z,64.74
2023-03-10T16:21:08.447Z,64.50
2023-03-10T16:23:39.293Z,64.99
2023-03-10T16:26:12.861Z,64.25
2023-03-10T16:28:42.900Z,64.32
2023-03-10T16:31:11.323Z,64.58
2023-03-10T16:33:42.057Z,64.85
2023-03-10T16:36:24.156Z,64.32
2023-03-10T16:48:46.530Z,64.32
2023-03-10T16:54:34.984Z,64.72
2023-03-10T16:57:03.711Z,64.22
2023-03-10T16:59:36.128Z,65.06
2023-03-10T17:03:21.764Z,64.47
2023-03-10T17:05:55.613Z,64.95
2023-03-10T17:08:30.292Z,64.85
2023-03-10T17:11:03.880Z,64.76
2023-03-10T17:13:34.807Z,64.04
2023-03-10T17:16:02.257Z,64.73
2023-03-10T17:18:31.031Z,64.66
2023-03-10T17:20:58.111Z,64.93
2023-03-10T17:23:25.348Z,64.88
2023-03-10T17:25:56.879Z,64.93
2023-03-10T17:28:27.729Z,64.37
2023-03-10T17:31:01.985Z,65.35
2023-03-10T17:33:31.696Z,64.40
2023-03-10T17:35:59.380Z,64.96
2023-03-10T17:38:27.011Z,64.89
2023-03-10T17:40:57.637Z,64.66
2023-03-10T17:43:34.013Z,64.66
2023-03-10T17:46:05.777Z,65.25
2023-03-10T17:48:34.053Z,65.14
2023-03-10T18:28:35.679Z,64.38
2023-03-10T18:38:55.692Z,64.54
2023-03-10T19:13:14.536Z,64.77
2023-03-10T20:37:25.552Z,65.85
2023-03-10T20:48:25.183Z,65.57
2023-03-10T21:11:33.077Z,65.80
2023-03-10T21:33:04.079Z,66.08
2023-03-10T21:56:05.287Z,65.38
2023-03-10T22:27:51.425Z,66.13
2023-03-10T22:30:21.829Z,65.45
2023-03-10T22:48:39.643Z,65.40
2023-03-10T22:51:11.108Z,65.39
2023-03-10T22:56:55.368Z,65.81
2023-03-10T23:02:40.772Z,65.61
2023-03-10T23:38:00.480Z,65.24
2023-03-10T23:51:49.764Z,65.65
